Portada
METAR-TAF:

METAR-TAF

Aeroports :

Kupang, Indonèsia

latitud: 10-10-17S, longitud: 123-40-16E, altitud: 102 m

Observació

L'informe es va fer fa 22 minuts, a les 06:00 UTC
Vent 10 kt del Sud
Temperatura 32°C
Humitat 56%
Pressió 1008 hPa
Visibilitat 10 km o més
Núvols disperses a una alçada de 1800 ft

METAR: WATT 270600Z 17010KT 9999 SCT018 32/22 Q1008 NOSIG

Hora: 13:22 (06:22 UTC)

Pronòstic

L'informe es va fer fa 1 hora i 22 minuts, a les 05:00 UTC
Pronòstic vàlid del 27 a les 06 UTC al 28 a les 06 UTC
Vent 13 kt del Sud/Sud-Est
Visibilitat 10 km o més
Escasses núvols a una alçada de 1800 ft, Cumulonimbus.
Núvols disperses a una alçada de 1800 ft
Temporalment
l' 27 a les 06 UTC al 27 a les 10 UTC
Visibilitat: 5000 m
pluja
Evolucionant progressivament
l' 27 a les 10 UTC al 27 a les 12 UTC
Vent 4 kt del Est

TAF: WATT 270500Z 2706/2806 15013KT 9999 FEW018CB SCT018 TEMPO 2706/2710 5000 RA BECMG 2710/2712 10004KT

Observacions i pronòstics meteorològics de més de 4000 aeroports (METAR i TAF).

Les estacions disponibles són els punts grocs i vermells al mapa.

Posi el ratolí al punt desitjat per veure el nom de l'estació.

Feu clic per veure les observacions i els pronòstics meteorològics.

Per canviar el mapa: feu clic els botons verds amb una creu de color negre per apropar; al botó verd amb un guió per allunyar la imatge; o en les fletxes verdes per a mapes adjacents.


METAR-TAF: